Time;durP1;ratioP1;P1;durP2;ratioP2;P2;SDS_P1;SDS_P2;PMS_P1;PMS_P2;Temp;Humidity;BMP_temperature;BMP_pressure;BME280_temperature;BME280_humidity;BME280_pressure;Samples;Min_cycle;Max_cycle;Signal;HPM_P1;HPM_P2
2022/03/11 00:01:06;;;;;;;15.68;10.80;;;6.00;69.20;;;;;;5007638;28;20112;-69
2022/03/11 00:03:32;;;;;;;16.88;11.20;;;5.90;69.40;;;;;;5005752;28;20053;-69
2022/03/11 00:05:57;;;;;;;15.77;10.98;;;5.80;69.40;;;;;;5013750;28;20037;-69
2022/03/11 00:08:23;;;;;;;14.13;11.23;;;5.90;69.40;;;;;;5009310;28;20045;-69
2022/03/11 00:10:49;;;;;;;15.10;10.82;;;5.80;69.60;;;;;;5006621;28;20054;-70
2022/03/11 00:13:14;;;;;;;15.48;11.10;;;5.80;69.70;;;;;;5003430;28;20053;-69
2022/03/11 00:15:40;;;;;;;14.90;11.50;;;5.80;70.00;;;;;;5002995;28;20124;-69
2022/03/11 00:18:06;;;;;;;13.05;11.13;;;5.70;69.60;;;;;;4991039;28;20046;-69
2022/03/11 00:20:32;;;;;;;16.17;11.13;;;5.70;69.80;;;;;;5006265;28;20049;-69
2022/03/11 00:22:58;;;;;;;15.00;10.80;;;5.70;70.10;;;;;;5018129;28;20044;-69
2022/03/11 00:25:24;;;;;;;16.25;10.75;;;5.70;70.10;;;;;;5021184;28;20472;-69
2022/03/11 00:27:51;;;;;;;13.57;11.10;;;5.70;70.10;;;;;;5006862;28;20041;-69
2022/03/11 00:30:17;;;;;;;18.67;11.05;;;5.60;70.10;;;;;;5028761;28;20045;-69
2022/03/11 00:32:42;;;;;;;15.20;11.82;;;5.50;70.40;;;;;;5026599;28;20136;-69
2022/03/11 00:35:10;;;;;;;15.50;10.73;;;5.50;70.70;;;;;;5008737;28;20129;-69
2022/03/11 00:37:37;;;;;;;13.98;11.45;;;5.50;70.40;;;;;;5006157;28;20425;-69
2022/03/11 00:40:06;;;;;;;15.43;10.88;;;5.50;70.60;;;;;;5016791;28;20055;-69
2022/03/11 00:42:31;;;;;;;15.27;10.95;;;5.40;70.50;;;;;;5004453;28;20349;-69
2022/03/11 00:44:57;;;;;;;12.63;10.43;;;5.40;70.80;;;;;;5003904;28;20045;-69
2022/03/11 00:47:23;;;;;;;13.57;10.57;;;5.30;71.00;;;;;;5005367;28;20045;-69
2022/03/11 00:49:48;;;;;;;14.68;9.82;;;5.30;70.70;;;;;;5015966;28;20462;-69
2022/03/11 00:52:14;;;;;;;12.70;9.70;;;5.30;70.60;;;;;;5005245;28;20099;-69
2022/03/11 00:54:40;;;;;;;13.65;10.13;;;5.30;70.90;;;;;;5020073;28;20048;-69
2022/03/11 00:57:06;;;;;;;13.70;10.02;;;5.20;71.30;;;;;;5009315;28;20045;-69
2022/03/11 00:59:31;;;;;;;14.90;9.95;;;5.20;70.90;;;;;;5022055;28;20462;-69
2022/03/11 01:01:57;;;;;;;11.80;9.43;;;5.10;71.60;;;;;;4998665;28;20116;-69
2022/03/11 01:04:22;;;;;;;12.35;9.00;;;5.20;71.60;;;;;;5025453;28;20440;-69
2022/03/11 01:06:48;;;;;;;12.95;8.93;;;5.20;71.80;;;;;;5008761;28;20114;-69
2022/03/11 01:09:14;;;;;;;10.57;8.68;;;5.10;71.80;;;;;;5018563;28;20069;-69
2022/03/11 01:11:40;;;;;;;12.70;9.35;;;5.20;71.90;;;;;;5019269;28;20034;-69
2022/03/11 01:14:06;;;;;;;11.30;8.73;;;5.10;71.40;;;;;;5003405;28;20077;-69
2022/03/11 01:16:32;;;;;;;14.43;9.60;;;5.00;72.00;;;;;;4997374;28;20107;-69
2022/03/11 01:18:58;;;;;;;10.20;8.52;;;5.10;71.90;;;;;;4996245;28;20057;-69
2022/03/11 01:21:23;;;;;;;13.20;8.63;;;5.00;73.10;;;;;;5021226;28;20074;-69
2022/03/11 01:23:49;;;;;;;12.40;8.68;;;4.90;72.70;;;;;;5026277;28;20025;-69
2022/03/11 01:26:16;;;;;;;11.85;8.65;;;4.90;72.60;;;;;;5004484;28;20046;-68
2022/03/11 01:28:42;;;;;;;11.95;8.75;;;4.90;72.50;;;;;;5005513;28;20042;-69
2022/03/11 01:31:11;;;;;;;12.07;8.20;;;4.90;73.10;;;;;;5004026;28;20057;-69
2022/03/11 01:33:38;;;;;;;10.18;8.32;;;4.90;73.10;;;;;;5023230;28;20037;-69
2022/03/11 01:36:05;;;;;;;10.40;8.32;;;4.90;73.50;;;;;;4998680;28;20056;-69
2022/03/11 01:38:31;;;;;;;11.43;7.80;;;4.90;73.00;;;;;;5001902;28;20121;-69
2022/03/11 01:40:56;;;;;;;11.10;8.77;;;4.80;73.00;;;;;;5004586;28;20517;-70
2022/03/11 01:43:22;;;;;;;12.13;8.50;;;4.80;73.50;;;;;;5022763;28;20041;-69
2022/03/11 01:45:48;;;;;;;12.00;8.45;;;4.80;73.70;;;;;;4999303;28;20080;-69
2022/03/11 01:48:17;;;;;;;11.60;8.15;;;4.80;73.80;;;;;;5024129;28;20157;-67
2022/03/11 01:50:42;;;;;;;12.80;7.60;;;4.70;74.10;;;;;;5009856;28;20042;-68
2022/03/11 01:53:10;;;;;;;12.10;7.82;;;4.70;74.30;;;;;;5002560;28;20054;-70
2022/03/11 01:55:37;;;;;;;12.13;8.73;;;4.70;74.30;;;;;;4998095;28;20172;-69
2022/03/11 01:58:03;;;;;;;12.73;8.85;;;4.70;74.30;;;;;;5010235;28;20038;-69
2022/03/11 02:00:30;;;;;;;12.63;8.50;;;4.70;74.30;;;;;;5022794;28;20374;-69
2022/03/11 02:02:55;;;;;;;13.25;9.13;;;4.70;75.20;;;;;;4997725;28;20042;-69
2022/03/11 02:05:21;;;;;;;12.23;8.25;;;4.60;74.80;;;;;;5019214;28;20464;-69
2022/03/11 02:07:50;;;;;;;12.77;9.07;;;4.60;75.20;;;;;;5021155;28;20388;-69
2022/03/11 02:10:16;;;;;;;13.35;9.18;;;4.60;75.40;;;;;;5011811;28;20103;-69
2022/03/11 02:12:43;;;;;;;11.48;8.93;;;4.60;75.60;;;;;;5002436;28;20080;-69
2022/03/11 02:15:09;;;;;;;12.82;8.25;;;4.50;76.70;;;;;;5022217;28;20088;-69
2022/03/11 02:17:35;;;;;;;12.13;8.30;;;4.40;76.20;;;;;;5003679;28;20046;-71
2022/03/11 02:20:05;;;;;;;12.10;9.52;;;4.40;76.10;;;;;;5025975;28;20084;-67
2022/03/11 02:22:36;;;;;;;13.60;9.25;;;4.50;76.70;;;;;;5009212;28;20123;-69
2022/03/11 02:25:05;;;;;;;11.32;8.82;;;4.40;77.20;;;;;;5018307;28;20084;-69
2022/03/11 02:27:35;;;;;;;13.38;8.88;;;4.40;77.50;;;;;;5005120;28;20057;-69
2022/03/11 02:30:04;;;;;;;13.88;9.20;;;4.40;77.80;;;;;;5022937;28;20033;-69
2022/03/11 02:32:29;;;;;;;11.27;8.63;;;4.40;77.50;;;;;;5017358;28;20240;-69
2022/03/11 02:34:55;;;;;;;13.18;9.70;;;4.30;78.10;;;;;;5022087;28;20173;-69
2022/03/11 02:37:21;;;;;;;12.88;8.93;;;4.30;77.70;;;;;;5004779;28;20048;-69
2022/03/11 02:39:46;;;;;;;15.40;9.88;;;4.30;78.10;;;;;;5003293;28;20073;-67
2022/03/11 02:42:12;;;;;;;13.43;9.23;;;4.30;78.20;;;;;;5021830;28;20038;-69
2022/03/11 02:44:38;;;;;;;12.80;9.48;;;4.30;79.40;;;;;;5004845;28;20033;-69
2022/03/11 02:47:04;;;;;;;12.95;10.38;;;4.30;79.10;;;;;;5015342;28;20048;-69
2022/03/11 02:49:30;;;;;;;13.05;9.80;;;4.30;79.30;;;;;;5015604;28;20113;-69
2022/03/11 02:51:56;;;;;;;13.00;9.10;;;4.40;79.60;;;;;;5019998;28;20468;-69
2022/03/11 02:54:24;;;;;;;15.50;10.32;;;4.40;79.80;;;;;;4989552;28;20140;-69
2022/03/11 02:56:49;;;;;;;17.60;11.30;;;4.40;79.40;;;;;;5023179;28;20176;-69
2022/03/11 02:59:15;;;;;;;14.23;10.25;;;4.30;78.90;;;;;;5021044;28;20121;-69
2022/03/11 03:01:41;;;;;;;13.90;10.35;;;4.20;79.50;;;;;;5021046;28;20044;-69
2022/03/11 03:04:07;;;;;;;17.02;10.55;;;4.30;79.70;;;;;;5005096;28;20038;-69
2022/03/11 03:06:32;;;;;;;14.57;10.35;;;4.30;80.60;;;;;;5007548;28;20045;-69
2022/03/11 03:08:58;;;;;;;14.38;10.30;;;4.20;80.00;;;;;;5005036;28;20693;-69
2022/03/11 03:11:23;;;;;;;14.27;10.23;;;4.30;80.70;;;;;;5002950;28;20112;-70
2022/03/11 03:13:49;;;;;;;14.13;10.80;;;4.30;80.20;;;;;;4998924;28;20041;-69
2022/03/11 03:16:15;;;;;;;17.60;11.07;;;4.30;80.40;;;;;;5013180;28;20095;-69
2022/03/11 03:18:40;;;;;;;16.23;11.27;;;4.20;80.00;;;;;;5000079;28;20046;-69
2022/03/11 03:21:06;;;;;;;13.85;10.50;;;4.20;80.20;;;;;;5002965;28;20045;-69
2022/03/11 03:23:32;;;;;;;16.58;11.25;;;4.20;80.60;;;;;;5020016;28;20057;-69
2022/03/11 03:25:58;;;;;;;13.10;10.15;;;4.20;81.60;;;;;;5021977;28;20073;-69
2022/03/11 03:28:23;;;;;;;16.05;11.18;;;4.20;81.30;;;;;;5002104;28;20127;-69
2022/03/11 03:30:49;;;;;;;14.70;11.27;;;4.20;81.50;;;;;;4998194;28;20053;-67
2022/03/11 03:33:15;;;;;;;15.35;11.23;;;4.20;81.40;;;;;;5021716;28;20057;-69
2022/03/11 03:35:41;;;;;;;15.40;11.23;;;4.20;82.00;;;;;;4998301;28;20048;-68
2022/03/11 03:38:06;;;;;;;17.05;11.82;;;4.20;82.00;;;;;;5009830;28;20053;-69
2022/03/11 03:40:32;;;;;;;17.27;12.02;;;4.30;81.80;;;;;;5021970;28;20049;-69
2022/03/11 03:42:58;;;;;;;15.82;11.57;;;4.20;81.90;;;;;;4995903;28;20034;-69
2022/03/11 03:45:24;;;;;;;17.55;11.70;;;4.20;81.60;;;;;;4998422;28;20072;-67
2022/03/11 03:47:50;;;;;;;14.13;11.20;;;4.20;81.80;;;;;;5022023;28;20046;-67
2022/03/11 03:50:15;;;;;;;15.80;12.20;;;4.20;82.10;;;;;;5007529;28;20127;-67
2022/03/11 03:52:42;;;;;;;19.35;12.82;;;4.20;82.40;;;;;;5024779;28;20048;-69
2022/03/11 03:55:08;;;;;;;17.98;12.20;;;4.20;82.50;;;;;;5018374;28;20056;-68
2022/03/11 03:57:35;;;;;;;16.08;12.57;;;4.20;82.50;;;;;;5004866;28;20037;-68
2022/03/11 04:00:00;;;;;;;14.20;11.43;;;4.20;83.00;;;;;;5001265;28;20065;-68
2022/03/11 04:02:26;;;;;;;17.80;12.45;;;4.10;82.50;;;;;;5017416;28;20186;-68
2022/03/11 04:04:52;;;;;;;17.95;11.88;;;4.10;82.70;;;;;;5003469;28;20091;-68
2022/03/11 04:07:17;;;;;;;15.25;12.55;;;4.10;83.50;;;;;;5002350;28;20056;-68
2022/03/11 04:09:43;;;;;;;17.15;12.60;;;4.00;82.70;;;;;;4989967;28;20092;-68
2022/03/11 04:12:09;;;;;;;18.92;13.40;;;4.00;82.70;;;;;;5002684;28;20049;-68
2022/03/11 04:14:35;;;;;;;17.23;13.52;;;3.90;83.00;;;;;;5000714;28;20053;-68
2022/03/11 04:17:00;;;;;;;19.63;13.95;;;3.90;83.50;;;;;;5004134;28;20512;-68
2022/03/11 04:19:26;;;;;;;20.30;13.35;;;3.90;83.70;;;;;;5004796;28;20042;-68
2022/03/11 04:21:53;;;;;;;19.67;13.75;;;3.80;83.50;;;;;;5018466;28;20121;-68
2022/03/11 04:24:19;;;;;;;18.58;13.45;;;3.80;84.30;;;;;;5004073;28;20033;-68
2022/03/11 04:26:45;;;;;;;19.25;14.27;;;3.80;83.90;;;;;;5004558;28;20049;-68
2022/03/11 04:29:12;;;;;;;20.27;14.38;;;3.70;84.40;;;;;;5020953;28;20049;-68
2022/03/11 04:31:38;;;;;;;20.70;15.15;;;3.60;85.50;;;;;;5018863;28;20060;-68
2022/03/11 04:34:04;;;;;;;19.40;14.48;;;3.60;85.30;;;;;;5003175;28;20077;-68
2022/03/11 04:36:33;;;;;;;20.35;14.15;;;3.60;85.60;;;;;;5021224;28;20495;-68
2022/03/11 04:39:02;;;;;;;19.23;14.93;;;3.50;85.60;;;;;;5021741;28;20080;-68
2022/03/11 04:41:28;;;;;;;21.25;14.52;;;3.50;86.00;;;;;;5005567;28;20559;-68
2022/03/11 04:43:54;;;;;;;18.85;13.88;;;3.50;86.50;;;;;;5023256;28;20065;-68
2022/03/11 04:46:19;;;;;;;20.15;15.32;;;3.50;86.30;;;;;;5007470;28;20041;-68
2022/03/11 04:48:47;;;;;;;20.40;15.10;;;3.40;86.40;;;;;;5027595;28;20518;-68
2022/03/11 04:51:16;;;;;;;20.13;15.10;;;3.50;86.70;;;;;;5004777;28;20041;-69
2022/03/11 04:53:41;;;;;;;22.60;15.38;;;3.50;86.20;;;;;;4988500;28;20521;-68
2022/03/11 04:56:08;;;;;;;23.88;15.38;;;3.50;86.90;;;;;;5022705;28;20038;-68
2022/03/11 04:58:33;;;;;;;22.33;14.82;;;3.40;87.00;;;;;;5012004;28;20563;-68
2022/03/11 05:00:59;;;;;;;22.27;15.73;;;3.40;87.20;;;;;;5010455;28;20077;-68
2022/03/11 05:03:25;;;;;;;21.30;15.88;;;3.40;87.60;;;;;;5007846;28;20045;-68
2022/03/11 05:05:52;;;;;;;21.45;16.52;;;3.30;87.40;;;;;;5024173;28;20044;-68
2022/03/11 05:08:17;;;;;;;21.70;15.52;;;3.30;87.80;;;;;;5021318;28;20160;-68
2022/03/11 05:10:43;;;;;;;20.80;15.55;;;3.30;88.30;;;;;;5024620;28;20045;-68
2022/03/11 05:13:09;;;;;;;22.77;16.08;;;3.30;88.50;;;;;;5007981;28;20129;-67
2022/03/11 05:15:37;;;;;;;22.15;15.98;;;3.20;88.40;;;;;;5018350;28;20044;-67
2022/03/11 05:18:04;;;;;;;21.88;16.60;;;3.30;88.60;;;;;;5004714;28;20049;-68
2022/03/11 05:20:30;;;;;;;22.83;16.08;;;3.20;88.70;;;;;;5019843;28;20069;-69
2022/03/11 05:22:56;;;;;;;23.65;16.33;;;3.20;88.20;;;;;;4994250;28;20065;-68
2022/03/11 05:25:22;;;;;;;24.65;17.42;;;3.20;88.40;;;;;;5016906;28;20100;-68
2022/03/11 05:27:48;;;;;;;23.55;17.52;;;3.20;88.40;;;;;;5023267;28;20046;-68
2022/03/11 05:30:13;;;;;;;23.45;17.25;;;3.20;88.50;;;;;;5005502;28;20104;-68
2022/03/11 05:32:44;;;;;;;25.10;17.20;;;3.20;88.60;;;;;;5017027;28;20053;-68
2022/03/11 05:35:10;;;;;;;23.33;16.48;;;3.10;89.20;;;;;;5021245;28;20030;-68
2022/03/11 05:37:37;;;;;;;24.25;18.45;;;3.10;89.00;;;;;;5006126;28;20072;-68
2022/03/11 05:40:03;;;;;;;25.98;17.65;;;3.10;89.10;;;;;;5000809;28;20129;-68
2022/03/11 05:42:29;;;;;;;23.90;17.30;;;3.10;89.40;;;;;;5015874;28;20563;-68
2022/03/11 05:44:54;;;;;;;25.95;17.55;;;3.00;89.70;;;;;;5017228;28;20041;-67
2022/03/11 05:47:20;;;;;;;28.98;16.70;;;3.10;89.30;;;;;;5023077;28;20087;-68
2022/03/11 05:49:46;;;;;;;22.58;17.15;;;3.10;89.90;;;;;;4997348;28;20044;-68
2022/03/11 05:52:11;;;;;;;24.33;17.48;;;3.10;89.70;;;;;;4998024;28;20063;-68
2022/03/11 05:54:37;;;;;;;24.80;18.00;;;3.00;89.10;;;;;;5004573;28;20136;-68
2022/03/11 05:57:03;;;;;;;27.10;18.17;;;3.00;90.00;;;;;;5003429;28;20050;-68
2022/03/11 05:59:29;;;;;;;23.05;17.25;;;2.90;90.10;;;;;;5022221;28;20621;-68
2022/03/11 06:01:55;;;;;;;28.35;18.90;;;2.90;90.30;;;;;;5000026;28;20045;-68
2022/03/11 06:04:21;;;;;;;25.77;18.65;;;2.90;90.40;;;;;;5006071;28;20781;-68
2022/03/11 06:06:47;;;;;;;24.58;18.42;;;2.90;90.20;;;;;;5007877;28;20139;-68
2022/03/11 06:09:13;;;;;;;25.13;18.25;;;2.90;90.00;;;;;;5019468;28;20037;-68
2022/03/11 06:11:39;;;;;;;23.52;17.40;;;2.90;90.20;;;;;;5003596;28;20045;-68
2022/03/11 06:14:06;;;;;;;25.90;19.60;;;2.90;90.00;;;;;;5022852;28;20040;-68
2022/03/11 06:16:32;;;;;;;23.75;17.13;;;2.80;90.50;;;;;;4995904;28;20036;-68
2022/03/11 06:18:57;;;;;;;25.33;18.77;;;2.80;90.10;;;;;;4988186;28;20455;-68
2022/03/11 06:21:23;;;;;;;24.88;18.98;;;2.80;90.00;;;;;;5018794;28;20046;-68
2022/03/11 06:23:49;;;;;;;21.17;15.73;;;2.80;90.40;;;;;;5004036;28;20087;-68
2022/03/11 06:26:14;;;;;;;26.77;18.35;;;2.80;90.50;;;;;;5002121;28;20029;-68
2022/03/11 06:28:40;;;;;;;27.70;19.42;;;2.90;90.40;;;;;;5000875;28;20048;-68
2022/03/11 06:31:08;;;;;;;27.05;18.73;;;2.90;90.60;;;;;;5017068;28;20498;-68
2022/03/11 06:33:34;;;;;;;30.20;17.17;;;3.00;90.30;;;;;;5000138;28;21390;-69
2022/03/11 06:36:00;;;;;;;28.98;19.50;;;2.90;90.50;;;;;;5021230;28;20037;-69
2022/03/11 06:38:25;;;;;;;25.58;18.92;;;3.00;90.20;;;;;;5001345;28;20061;-69
2022/03/11 06:40:53;;;;;;;25.38;18.58;;;3.00;90.70;;;;;;5002232;28;20046;-69
2022/03/11 06:43:19;;;;;;;28.95;18.90;;;3.00;90.30;;;;;;5005098;28;20041;-69
2022/03/11 06:45:45;;;;;;;23.25;18.10;;;3.10;90.00;;;;;;5000565;28;20054;-69
2022/03/11 06:48:11;;;;;;;27.50;18.60;;;3.20;90.00;;;;;;5022008;28;20081;-69
2022/03/11 06:50:36;;;;;;;24.80;18.98;;;3.20;89.50;;;;;;5020451;28;20442;-69
2022/03/11 06:53:02;;;;;;;25.23;18.98;;;3.20;89.60;;;;;;5022936;28;20476;-69
2022/03/11 06:55:28;;;;;;;22.65;16.73;;;3.30;89.40;;;;;;5001709;28;20098;-69
2022/03/11 06:57:54;;;;;;;28.83;18.88;;;3.30;89.40;;;;;;5007250;28;20053;-69
2022/03/11 07:00:19;;;;;;;27.00;18.50;;;3.40;88.80;;;;;;4987430;28;20048;-69
2022/03/11 07:02:45;;;;;;;23.83;17.60;;;3.50;88.60;;;;;;4988355;28;20099;-69
2022/03/11 07:05:11;;;;;;;24.95;17.83;;;3.50;88.50;;;;;;5018239;28;20492;-69
2022/03/11 07:07:38;;;;;;;24.75;17.90;;;3.60;88.10;;;;;;5004264;28;20082;-69
2022/03/11 07:10:07;;;;;;;24.10;17.98;;;3.60;87.90;;;;;;5022371;28;20064;-69
2022/03/11 07:12:33;;;;;;;27.15;18.23;;;3.70;87.50;;;;;;4999089;28;20049;-69
2022/03/11 07:15:03;;;;;;;23.27;17.25;;;3.80;87.50;;;;;;5002682;28;20131;-69
2022/03/11 07:17:29;;;;;;;23.33;17.17;;;3.80;87.40;;;;;;5018083;28;20057;-67
2022/03/11 07:19:55;;;;;;;24.40;18.30;;;3.90;87.20;;;;;;5002507;28;20053;-67
2022/03/11 07:22:21;;;;;;;23.50;18.45;;;4.00;87.00;;;;;;5002960;28;20034;-68
2022/03/11 07:25:02;;;;;;;23.40;18.63;;;4.10;87.10;;;;;;5071957;27;20712;-68
2022/03/11 07:27:28;;;;;;;25.00;18.42;;;4.20;86.60;;;;;;5038648;28;20052;-68
2022/03/11 07:29:56;;;;;;;25.15;17.08;;;4.40;86.40;;;;;;5059510;28;20037;-68
2022/03/11 07:32:23;;;;;;;24.50;18.85;;;4.90;87.00;;;;;;5040455;28;20059;-69
2022/03/11 07:34:48;;;;;;;23.45;18.50;;;5.60;84.40;;;;;;5054231;28;20069;-69
2022/03/11 07:37:14;;;;;;;24.02;17.40;;;6.30;81.90;;;;;;5056766;28;20045;-68
2022/03/11 07:39:41;;;;;;;21.85;17.70;;;6.90;78.40;;;;;;5056708;28;20084;-67
2022/03/11 07:42:07;;;;;;;22.08;17.60;;;7.40;76.40;;;;;;5032730;28;20072;-67
2022/03/11 07:44:33;;;;;;;21.92;17.48;;;7.80;73.70;;;;;;5059892;28;20484;-67
2022/03/11 07:47:00;;;;;;;24.65;19.60;;;8.20;71.20;;;;;;5054339;28;20715;-68
2022/03/11 07:49:27;;;;;;;21.70;17.90;;;8.60;71.70;;;;;;5058166;28;20033;-69
2022/03/11 07:51:54;;;;;;;21.75;18.02;;;9.00;70.50;;;;;;5057310;28;20028;-69
2022/03/11 07:54:20;;;;;;;21.73;17.45;;;9.30;69.70;;;;;;5056969;28;20056;-69
2022/03/11 07:56:46;;;;;;;21.25;17.42;;;9.80;67.90;;;;;;5056483;28;20063;-69
2022/03/11 07:59:12;;;;;;;19.10;16.33;;;9.90;66.50;;;;;;5056917;28;20049;-69
2022/03/11 08:01:38;;;;;;;20.55;16.77;;;10.20;66.10;;;;;;5055708;28;20035;-68
2022/03/11 08:04:04;;;;;;;20.85;17.38;;;10.40;65.00;;;;;;5056586;28;20464;-70
2022/03/11 08:06:30;;;;;;;20.10;16.88;;;10.60;63.60;;;;;;5055401;28;20029;-69
2022/03/11 08:08:56;;;;;;;20.00;17.35;;;10.70;62.40;;;;;;5057202;28;20034;-69
2022/03/11 08:11:22;;;;;;;19.15;17.13;;;10.90;62.80;;;;;;5057739;28;20037;-69
2022/03/11 08:13:48;;;;;;;19.73;17.15;;;11.10;61.60;;;;;;5062185;28;20044;-67
2022/03/11 08:16:15;;;;;;;21.00;17.35;;;11.20;61.00;;;;;;5051229;28;20068;-68
2022/03/11 08:18:42;;;;;;;19.20;16.02;;;11.40;61.40;;;;;;5059654;28;20091;-68
2022/03/11 08:21:08;;;;;;;22.85;16.85;;;11.40;59.40;;;;;;5057936;28;20131;-69
2022/03/11 08:23:33;;;;;;;21.40;17.70;;;11.70;59.70;;;;;;5058045;28;20147;-67
2022/03/11 08:25:59;;;;;;;19.85;16.73;;;11.80;59.20;;;;;;5053850;28;20081;-69
2022/03/11 08:28:25;;;;;;;22.58;17.40;;;12.00;58.50;;;;;;5058754;28;20029;-69
2022/03/11 08:30:53;;;;;;;19.17;16.23;;;12.00;58.00;;;;;;5056228;28;20072;-68
2022/03/11 08:33:22;;;;;;;21.77;17.52;;;12.30;58.50;;;;;;5059662;28;20122;-68
2022/03/11 08:35:48;;;;;;;19.15;16.85;;;12.60;57.10;;;;;;5045881;28;20068;-68
2022/03/11 08:38:14;;;;;;;20.75;17.20;;;12.80;56.40;;;;;;5044540;28;20029;-69
2022/03/11 08:40:40;;;;;;;19.70;17.60;;;13.00;55.70;;;;;;5045882;28;20036;-68
2022/03/11 08:43:05;;;;;;;24.15;17.45;;;12.90;54.30;;;;;;5045671;28;20040;-69
2022/03/11 08:45:32;;;;;;;21.10;16.98;;;12.70;53.30;;;;;;5043787;28;20087;-69
2022/03/11 08:47:58;;;;;;;17.67;15.70;;;12.60;54.30;;;;;;5041287;28;20396;-69
2022/03/11 08:50:24;;;;;;;19.27;17.27;;;12.60;54.60;;;;;;5042703;28;20048;-69
2022/03/11 08:52:50;;;;;;;17.55;15.65;;;12.50;54.60;;;;;;5045700;28;20496;-68
2022/03/11 08:55:16;;;;;;;21.02;17.15;;;12.70;55.70;;;;;;5042995;28;20048;-72
2022/03/11 08:57:49;;;;;;;22.30;17.60;;;12.90;54.60;;;;;;5045635;28;20045;-69
2022/03/11 09:00:16;;;;;;;19.85;17.73;;;12.90;53.10;;;;;;5044694;28;20150;-69
2022/03/11 09:02:45;;;;;;;19.60;17.50;;;12.90;53.40;;;;;;5040125;28;20375;-69
2022/03/11 09:05:12;;;;;;;19.52;17.33;;;13.10;54.50;;;;;;5044173;28;20040;-70
2022/03/11 09:07:38;;;;;;;19.15;16.10;;;13.70;53.50;;;;;;5039593;28;20156;-72
2022/03/11 09:10:06;;;;;;;21.00;16.75;;;13.50;50.70;;;;;;5042890;28;20047;-69
2022/03/11 09:12:32;;;;;;;20.17;17.20;;;13.60;50.40;;;;;;5042819;28;20390;-69
2022/03/11 09:14:58;;;;;;;19.02;17.02;;;13.40;51.60;;;;;;5046716;28;20047;-70
2022/03/11 09:17:23;;;;;;;19.83;16.90;;;13.60;51.60;;;;;;5024992;28;20054;-69
2022/03/11 09:19:49;;;;;;;20.80;17.23;;;13.80;50.70;;;;;;5043347;28;20110;-69
2022/03/11 09:22:17;;;;;;;18.92;16.77;;;13.90;50.10;;;;;;5045099;28;20069;-70
2022/03/11 09:24:46;;;;;;;19.08;17.08;;;14.00;50.60;;;;;;5042165;28;20119;-69
2022/03/11 09:27:12;;;;;;;20.10;16.17;;;14.20;49.30;;;;;;5044873;28;20036;-69
2022/03/11 09:29:41;;;;;;;20.35;17.35;;;13.90;50.40;;;;;;5038054;28;20112;-69
2022/03/11 09:32:08;;;;;;;20.40;18.20;;;14.30;48.80;;;;;;5041546;28;20108;-69
2022/03/11 09:34:35;;;;;;;19.10;17.10;;;14.40;49.80;;;;;;5044796;28;20048;-69
2022/03/11 09:37:01;;;;;;;21.58;18.00;;;14.50;49.30;;;;;;5045816;28;20041;-67
2022/03/11 09:39:27;;;;;;;23.80;16.85;;;14.60;49.50;;;;;;5041085;28;20097;-67
2022/03/11 09:41:53;;;;;;;20.90;17.83;;;14.60;48.20;;;;;;5044305;28;20041;-67
2022/03/11 09:44:20;;;;;;;19.13;17.13;;;14.50;49.00;;;;;;5045393;28;20068;-73
2022/03/11 09:46:46;;;;;;;19.60;17.48;;;14.40;49.30;;;;;;5040087;28;20075;-74
2022/03/11 09:49:13;;;;;;;19.58;16.45;;;14.50;48.80;;;;;;5038001;28;20037;-74
2022/03/11 09:51:41;;;;;;;21.75;17.67;;;14.40;48.90;;;;;;5045102;28;20132;-68
2022/03/11 09:54:07;;;;;;;21.40;18.23;;;14.40;48.90;;;;;;5043523;28;20049;-66
2022/03/11 09:56:35;;;;;;;21.48;17.95;;;14.50;48.20;;;;;;5042508;28;20067;-66
2022/03/11 09:59:00;;;;;;;18.80;16.80;;;14.50;48.40;;;;;;5041667;28;20037;-68
2022/03/11 10:01:26;;;;;;;20.70;17.77;;;14.30;48.70;;;;;;5042735;28;20121;-65
2022/03/11 10:03:52;;;;;;;20.83;17.35;;;14.20;48.70;;;;;;5045852;28;20146;-75
2022/03/11 10:06:47;;;;;;;19.55;17.55;;;14.30;48.40;;;;;;5045144;28;20496;-69
2022/03/11 10:09:33;;;;;;;21.55;18.17;;;14.10;49.20;;;;;;5039952;28;20065;-67
2022/03/11 10:12:00;;;;;;;20.15;17.13;;;14.00;49.10;;;;;;5044296;28;20048;-67
2022/03/11 10:14:34;;;;;;;20.92;17.00;;;14.10;49.10;;;;;;5042525;28;20041;-65
2022/03/11 10:17:01;;;;;;;20.05;17.80;;;14.10;48.70;;;;;;5042090;28;20048;-69
2022/03/11 10:19:27;;;;;;;18.42;16.42;;;14.20;48.80;;;;;;5043487;28;20041;-71
2022/03/11 10:21:57;;;;;;;19.73;17.38;;;14.30;48.50;;;;;;5043401;28;20060;-71
2022/03/11 10:24:23;;;;;;;21.80;18.38;;;14.40;48.70;;;;;;5025786;28;20126;-65
2022/03/11 10:26:54;;;;;;;18.70;16.70;;;14.50;48.60;;;;;;5041145;28;20365;-67
2022/03/11 10:29:27;;;;;;;21.30;18.00;;;14.50;47.90;;;;;;5040232;28;20052;-65
2022/03/11 10:31:55;;;;;;;20.48;18.33;;;14.40;48.40;;;;;;5044308;28;20389;-65
2022/03/11 10:34:28;;;;;;;19.92;16.95;;;14.40;49.30;;;;;;5049389;28;20459;-75
2022/03/11 10:36:58;;;;;;;19.67;17.40;;;14.50;48.20;;;;;;5040688;28;20077;-73
2022/03/11 10:39:29;;;;;;;20.88;17.30;;;14.80;49.20;;;;;;5028269;28;20362;-70
2022/03/11 10:41:57;;;;;;;21.05;18.10;;;15.20;47.70;;;;;;5044272;28;20098;-68
2022/03/11 10:44:25;;;;;;;19.67;17.48;;;15.60;47.20;;;;;;5041069;28;20175;-68
2022/03/11 10:46:52;;;;;;;21.15;18.05;;;15.70;47.70;;;;;;5040449;28;20051;-67
2022/03/11 10:49:54;;;;;;;18.77;16.23;;;15.70;46.50;;;;;;5044288;28;20036;-67
2022/03/11 10:52:40;;;;;;;17.48;14.77;;;15.50;45.60;;;;;;5041503;28;20668;-69
2022/03/11 10:55:26;;;;;;;20.20;15.95;;;15.10;45.70;;;;;;5041111;28;20032;-67
2022/03/11 10:57:56;;;;;;;16.92;15.23;;;15.30;44.40;;;;;;5043086;28;20051;-67
2022/03/11 11:00:24;;;;;;;21.63;16.17;;;15.20;44.70;;;;;;5044510;28;20056;-67
2022/03/11 11:02:52;;;;;;;18.55;15.50;;;15.30;44.30;;;;;;5040165;28;20029;-68
2022/03/11 11:05:18;;;;;;;17.67;15.77;;;15.50;44.80;;;;;;5042460;28;20163;-67
2022/03/11 11:07:44;;;;;;;16.50;14.80;;;15.40;45.00;;;;;;5039888;28;21557;-67
2022/03/11 11:10:12;;;;;;;19.13;16.25;;;15.50;43.60;;;;;;5043672;28;20704;-67
2022/03/11 11:12:39;;;;;;;18.75;16.85;;;15.60;44.20;;;;;;5042387;28;20385;-67
2022/03/11 11:15:06;;;;;;;19.08;16.67;;;15.80;43.90;;;;;;5043786;28;20033;-67
2022/03/11 11:17:32;;;;;;;17.95;16.20;;;15.90;43.30;;;;;;5043996;28;20938;-67
2022/03/11 11:20:00;;;;;;;18.10;15.60;;;15.70;43.10;;;;;;5044381;28;20112;-67
2022/03/11 11:22:27;;;;;;;17.35;15.65;;;15.50;42.60;;;;;;5044150;28;20106;-67
2022/03/11 11:24:56;;;;;;;17.98;16.17;;;15.40;43.10;;;;;;5043506;28;20056;-67
2022/03/11 11:27:23;;;;;;;17.92;16.13;;;15.40;43.40;;;;;;5039436;28;20111;-67
2022/03/11 11:29:50;;;;;;;18.50;16.60;;;15.40;43.70;;;;;;5040620;28;20120;-66
2022/03/11 11:32:18;;;;;;;17.85;15.98;;;15.50;43.50;;;;;;5039745;28;20080;-67
2022/03/11 11:34:44;;;;;;;16.98;15.05;;;15.70;43.90;;;;;;5042476;28;20124;-68
2022/03/11 11:37:37;;;;;;;18.67;16.65;;;16.00;43.00;;;;;;5045223;28;20419;-67
2022/03/11 11:40:20;;;;;;;16.85;15.05;;;15.90;43.20;;;;;;5041339;28;20118;-67
2022/03/11 11:43:11;;;;;;;18.75;16.75;;;16.00;43.60;;;;;;5043456;28;20094;-67
2022/03/11 11:45:51;;;;;;;17.25;15.45;;;16.20;42.40;;;;;;5042169;28;20076;-67
2022/03/11 11:48:45;;;;;;;16.48;14.80;;;16.50;43.20;;;;;;5041135;28;20107;-67
2022/03/11 11:51:13;;;;;;;17.25;15.52;;;16.60;41.70;;;;;;5034039;28;20064;-67
2022/03/11 11:53:48;;;;;;;18.60;15.38;;;16.40;41.20;;;;;;5042791;28;20029;-66
2022/03/11 11:56:31;;;;;;;19.02;16.02;;;16.20;41.70;;;;;;5040856;28;20075;-67
2022/03/11 11:59:17;;;;;;;17.63;15.73;;;16.40;42.70;;;;;;5039833;28;20036;-67
2022/03/11 12:01:44;;;;;;;17.88;15.52;;;16.40;42.20;;;;;;5040386;28;20044;-67
2022/03/11 12:04:19;;;;;;;17.45;14.93;;;16.40;42.80;;;;;;5037588;28;20045;-67
2022/03/11 12:07:05;;;;;;;17.92;15.15;;;16.50;41.60;;;;;;5046457;28;20047;-67
2022/03/11 12:09:42;;;;;;;17.52;15.75;;;16.50;42.30;;;;;;5042171;28;20558;-67
2022/03/11 12:12:28;;;;;;;16.30;14.10;;;16.60;41.40;;;;;;5046732;28;20041;-67
2022/03/11 12:14:54;;;;;;;15.82;14.23;;;16.60;40.70;;;;;;5042866;28;20139;-67
2022/03/11 12:17:36;;;;;;;17.58;15.77;;;16.50;41.50;;;;;;5045954;28;20111;-66
2022/03/11 12:20:35;;;;;;;17.33;15.30;;;16.40;41.40;;;;;;5047898;28;20115;-67
2022/03/11 12:23:12;;;;;;;16.58;14.80;;;16.40;41.60;;;;;;5043855;28;20114;-71
2022/03/11 12:25:45;;;;;;;17.70;14.32;;;16.50;41.00;;;;;;5044680;28;20118;-66
2022/03/11 12:28:31;;;;;;;17.02;14.82;;;16.40;40.50;;;;;;5048137;28;20037;-66
2022/03/11 12:31:13;;;;;;;16.15;14.52;;;16.30;42.00;;;;;;5044180;28;20129;-68
2022/03/11 12:33:45;;;;;;;18.70;14.52;;;16.50;41.30;;;;;;5043243;28;20049;-69
2022/03/11 12:36:11;;;;;;;19.48;14.93;;;16.70;41.30;;;;;;5045899;28;20053;-67
2022/03/11 12:38:37;;;;;;;18.77;14.82;;;16.70;40.00;;;;;;5045778;28;20099;-71